Time;durP1;ratioP1;P1;durP2;ratioP2;P2;SDS_P1;SDS_P2;PMS_P1;PMS_P2;Temp;Humidity;BMP_temperature;BMP_pressure;BME280_temperature;BME280_humidity;BME280_pressure;Samples;Min_cycle;Max_cycle;Signal;HPM_P1;HPM_P2
2021/12/11 00:00:35;;;;;;;7.53;4.93;;;1.70;99.80;;;;;;5074895;28;20016;-61
2021/12/11 00:03:12;;;;;;;7.70;5.05;;;1.70;99.90;;;;;;5092289;28;20480;-61
2021/12/11 00:05:37;;;;;;;8.32;4.78;;;1.70;99.90;;;;;;5092119;28;20035;-61
2021/12/11 00:08:05;;;;;;;6.00;4.20;;;1.70;99.90;;;;;;5092223;28;20032;-61
2021/12/11 00:10:44;;;;;;;6.97;3.83;;;1.70;99.90;;;;;;5092413;28;20032;-61
2021/12/11 00:13:20;;;;;;;6.18;4.03;;;1.70;99.90;;;;;;5092097;28;20043;-60
2021/12/11 00:15:47;;;;;;;9.15;4.35;;;1.70;99.90;;;;;;5092054;28;20024;-60
2021/12/11 00:18:18;;;;;;;7.65;4.55;;;1.70;99.90;;;;;;5092164;28;20020;-61
2021/12/11 00:24:24;;;;;;;5.90;4.60;;;1.70;99.90;;;;;;5081860;28;20031;-61
2021/12/11 00:27:03;;;;;;;8.30;4.82;;;1.60;99.90;;;;;;5095826;28;20111;-61
2021/12/11 00:29:29;;;;;;;7.75;4.35;;;1.70;99.90;;;;;;5095982;28;20028;-61
2021/12/11 00:32:06;;;;;;;6.60;4.80;;;1.70;99.90;;;;;;5095685;28;20050;-61
2021/12/11 00:34:33;;;;;;;7.05;5.20;;;1.80;99.90;;;;;;5077409;28;20052;-61
2021/12/11 00:37:05;;;;;;;7.25;4.70;;;1.80;99.90;;;;;;5095313;28;20106;-61
2021/12/11 00:39:37;;;;;;;8.45;4.78;;;1.90;99.90;;;;;;5077502;28;20020;-61
2021/12/11 00:42:06;;;;;;;6.93;4.82;;;1.80;99.90;;;;;;5095647;28;20027;-61
2021/12/11 00:44:37;;;;;;;6.60;4.68;;;1.80;99.90;;;;;;5095333;28;20020;-61
2021/12/11 00:47:19;;;;;;;7.13;4.32;;;1.80;99.90;;;;;;5095406;28;20035;-61
2021/12/11 00:49:53;;;;;;;7.50;4.20;;;1.80;99.90;;;;;;5095331;28;20032;-61
2021/12/11 00:52:46;;;;;;;6.97;4.63;;;1.80;99.90;;;;;;5095128;28;20472;-61
2021/12/11 00:55:26;;;;;;;7.00;4.40;;;1.70;99.90;;;;;;5095260;28;20487;-61
2021/12/11 00:58:00;;;;;;;;;;;1.70;99.90;;;;;;5095508;28;20028;-61
2021/12/11 01:00:26;;;;;;;6.15;4.07;;;1.50;99.90;;;;;;5095133;28;19904;-61
2021/12/11 01:02:55;;;;;;;6.28;4.18;;;1.40;99.90;;;;;;5077393;28;20368;-61
2021/12/11 01:05:24;;;;;;;5.72;3.60;;;1.40;99.90;;;;;;5094880;28;20044;-61
2021/12/11 01:07:50;;;;;;;5.97;3.57;;;1.40;99.90;;;;;;5076660;28;20445;-61
2021/12/11 01:10:23;;;;;;;5.60;3.90;;;1.30;99.90;;;;;;5094875;28;20028;-61
2021/12/11 01:12:57;;;;;;;3.65;2.75;;;1.30;99.90;;;;;;5094803;28;20030;-60
2021/12/11 01:15:39;;;;;;;5.55;3.92;;;1.30;99.90;;;;;;5076733;28;20115;-61
2021/12/11 01:20:53;;;;;;;6.53;3.97;;;1.40;99.90;;;;;;5094969;28;20024;-61
2021/12/11 01:23:45;;;;;;;7.05;4.35;;;1.40;99.90;;;;;;5094635;28;20047;-61
2021/12/11 01:26:15;;;;;;;7.22;4.03;;;1.40;99.90;;;;;;5094756;28;20031;-61
2021/12/11 01:28:41;;;;;;;6.45;3.72;;;1.40;99.90;;;;;;5094462;28;20442;-61
2021/12/11 01:31:10;;;;;;;7.28;4.60;;;1.40;99.90;;;;;;5094549;28;20060;-61
2021/12/11 01:33:36;;;;;;;7.57;4.18;;;1.40;99.90;;;;;;5094208;28;20063;-61
2021/12/11 01:36:05;;;;;;;8.68;4.78;;;1.40;99.90;;;;;;5094504;28;20031;-61
2021/12/11 01:38:31;;;;;;;7.13;4.60;;;1.40;99.90;;;;;;5094562;28;20017;-61
2021/12/11 01:41:04;;;;;;;6.82;4.65;;;1.40;99.90;;;;;;5094352;28;20028;-61
2021/12/11 01:43:32;;;;;;;7.50;4.88;;;1.40;99.90;;;;;;5094354;28;20020;-61
2021/12/11 01:46:00;;;;;;;6.88;4.55;;;1.40;99.90;;;;;;5094405;28;20043;-61
2021/12/11 01:48:33;;;;;;;5.55;4.07;;;1.50;99.90;;;;;;5094231;28;20026;-61
2021/12/11 01:51:20;;;;;;;6.22;4.10;;;1.40;99.90;;;;;;5094169;28;20069;-61
2021/12/11 01:53:56;;;;;;;6.28;4.03;;;1.40;99.90;;;;;;5094233;28;20020;-61
2021/12/11 01:56:25;;;;;;;5.43;3.85;;;1.40;99.90;;;;;;5093956;28;20020;-61
2021/12/11 01:58:59;;;;;;;5.47;4.00;;;1.40;99.90;;;;;;5094038;28;20036;-61
2021/12/11 02:01:39;;;;;;;5.97;4.20;;;1.40;99.90;;;;;;5094082;28;20024;-61
2021/12/11 02:04:08;;;;;;;6.35;4.55;;;1.40;99.90;;;;;;5093996;28;20488;-61
2021/12/11 02:06:38;;;;;;;8.18;4.97;;;1.40;99.90;;;;;;5075447;28;20024;-61
2021/12/11 02:09:19;;;;;;;8.43;5.07;;;1.40;99.90;;;;;;5093730;28;20020;-61
2021/12/11 02:11:51;;;;;;;7.95;4.38;;;1.40;99.90;;;;;;5093801;28;20028;-61
2021/12/11 02:14:24;;;;;;;6.88;4.38;;;1.40;99.90;;;;;;5093618;28;20407;-61
2021/12/11 02:16:52;;;;;;;8.52;4.93;;;1.40;99.90;;;;;;5093790;28;20012;-61
2021/12/11 02:19:32;;;;;;;7.05;4.80;;;1.40;99.90;;;;;;5093595;28;20020;-61
2021/12/11 02:22:01;;;;;;;10.43;4.63;;;1.40;99.90;;;;;;5093770;28;20506;-61
2021/12/11 02:24:38;;;;;;;7.03;4.18;;;1.40;99.90;;;;;;5075277;28;20388;-61
2021/12/11 02:27:14;;;;;;;8.13;4.95;;;1.40;99.90;;;;;;5093483;28;20024;-62
2021/12/11 02:29:53;;;;;;;8.77;5.55;;;1.30;99.90;;;;;;5093351;28;20024;-61
2021/12/11 02:32:31;;;;;;;8.90;4.85;;;1.30;99.90;;;;;;5075386;28;20050;-61
2021/12/11 02:35:15;;;;;;;8.35;4.88;;;1.30;99.90;;;;;;5093566;28;20032;-61
2021/12/11 02:37:49;;;;;;;7.57;5.00;;;1.30;99.90;;;;;;5093422;28;20097;-61
2021/12/11 02:40:19;;;;;;;8.48;5.55;;;1.20;99.90;;;;;;5093290;28;20051;-61
2021/12/11 02:42:53;;;;;;;7.55;4.78;;;1.20;99.90;;;;;;5093389;28;20017;-61
2021/12/11 02:45:30;;;;;;;10.20;6.20;;;1.20;99.90;;;;;;5074407;28;20028;-61
2021/12/11 02:48:06;;;;;;;7.95;5.30;;;1.20;99.90;;;;;;5065466;28;20078;-61
2021/12/11 02:51:04;;;;;;;8.60;5.22;;;1.00;99.90;;;;;;5072844;28;20085;-61
2021/12/11 02:53:37;;;;;;;8.35;4.72;;;0.90;99.90;;;;;;5086882;28;20036;-61
2021/12/11 02:56:08;;;;;;;9.52;5.78;;;0.90;99.90;;;;;;5074869;28;20020;-61
2021/12/11 02:58:38;;;;;;;8.60;5.57;;;0.90;99.90;;;;;;5074947;28;20361;-61
2021/12/11 03:01:10;;;;;;;11.00;5.95;;;0.90;99.90;;;;;;5074891;28;20384;-61
2021/12/11 03:03:42;;;;;;;8.23;5.18;;;0.90;99.90;;;;;;5092019;28;20055;-61
2021/12/11 03:06:20;;;;;;;7.45;4.63;;;1.00;99.90;;;;;;5092654;28;20091;-61
2021/12/11 03:08:47;;;;;;;8.00;4.50;;;1.00;99.90;;;;;;5074978;28;20371;-61
2021/12/11 03:11:16;;;;;;;8.90;4.35;;;1.10;99.90;;;;;;5092410;28;20051;-61
2021/12/11 03:13:50;;;;;;;12.80;4.57;;;1.10;99.90;;;;;;5092658;28;20143;-61
2021/12/11 03:16:18;;;;;;;11.75;4.88;;;1.10;99.90;;;;;;5092981;28;20403;-61
2021/12/11 03:18:44;;;;;;;11.55;4.65;;;1.20;99.90;;;;;;5092842;28;20388;-61
2021/12/11 03:21:10;;;;;;;13.88;4.53;;;1.20;99.90;;;;;;5092872;28;20024;-61
2021/12/11 03:23:36;;;;;;;14.00;6.25;;;1.20;99.90;;;;;;5092729;28;20043;-61
2021/12/11 03:26:02;;;;;;;15.10;5.40;;;1.30;99.90;;;;;;5092436;28;20028;-61
2021/12/11 03:28:27;;;;;;;14.38;5.97;;;1.30;99.90;;;;;;5074608;28;20082;-61
2021/12/11 03:30:57;;;;;;;10.07;5.00;;;1.30;99.90;;;;;;5092738;28;20098;-61
2021/12/11 03:33:27;;;;;;;13.88;5.55;;;1.40;99.90;;;;;;5092940;28;20056;-61
2021/12/11 03:35:55;;;;;;;14.13;5.30;;;1.30;99.90;;;;;;5080281;28;20073;-61
2021/12/11 03:38:21;;;;;;;12.27;6.50;;;1.30;99.90;;;;;;5072438;28;20021;-61
2021/12/11 03:40:47;;;;;;;10.38;6.38;;;1.30;99.90;;;;;;5054500;28;20582;-61
2021/12/11 03:43:17;;;;;;;14.63;7.10;;;1.30;99.90;;;;;;5072250;28;20032;-61
2021/12/11 03:45:45;;;;;;;14.38;5.88;;;1.30;99.90;;;;;;5072377;28;20032;-61
2021/12/11 03:48:15;;;;;;;11.07;7.30;;;1.30;99.90;;;;;;5072432;28;20506;-61
2021/12/11 03:50:41;;;;;;;13.10;8.38;;;1.30;99.90;;;;;;5072338;28;20033;-61
2021/12/11 03:53:08;;;;;;;18.75;9.55;;;1.20;99.90;;;;;;5072239;28;20082;-61
2021/12/11 03:55:39;;;;;;;17.70;7.93;;;1.20;99.90;;;;;;5072229;28;20031;-61
2021/12/11 03:58:07;;;;;;;13.20;8.15;;;1.10;99.90;;;;;;5075889;28;20469;-61
2021/12/11 04:00:39;;;;;;;11.93;6.55;;;1.10;99.90;;;;;;5084255;28;20055;-61
2021/12/11 04:03:08;;;;;;;10.20;6.95;;;1.10;99.90;;;;;;5096633;28;20365;-61
2021/12/11 04:05:36;;;;;;;11.77;6.40;;;1.20;99.90;;;;;;5096076;28;20507;-61
2021/12/11 04:08:04;;;;;;;12.77;6.75;;;1.10;99.90;;;;;;5078069;28;20135;-61
2021/12/11 04:10:30;;;;;;;11.88;6.72;;;1.10;99.90;;;;;;5078038;28;20477;-61
2021/12/11 04:12:59;;;;;;;10.20;7.40;;;1.10;99.90;;;;;;5095785;28;20086;-60
2021/12/11 04:15:25;;;;;;;15.80;8.65;;;1.10;99.90;;;;;;5096196;28;20052;-61
2021/12/11 04:17:51;;;;;;;12.23;9.27;;;1.10;99.90;;;;;;5095919;28;20447;-61
2021/12/11 04:20:19;;;;;;;15.95;11.63;;;1.10;99.90;;;;;;5096006;28;20020;-61
2021/12/11 04:22:45;;;;;;;22.40;11.88;;;1.10;99.90;;;;;;5095989;28;20027;-61
2021/12/11 04:25:14;;;;;;;18.05;11.23;;;1.00;99.90;;;;;;5077766;28;20391;-61
2021/12/11 04:27:40;;;;;;;16.27;10.70;;;1.00;99.90;;;;;;5095719;28;20523;-61
2021/12/11 04:30:10;;;;;;;15.32;9.52;;;1.00;99.90;;;;;;5096093;28;20036;-61
2021/12/11 04:32:37;;;;;;;11.73;8.18;;;1.00;99.90;;;;;;5077254;28;20028;-61
2021/12/11 04:35:05;;;;;;;13.52;8.73;;;1.10;99.90;;;;;;5095750;28;20050;-61
2021/12/11 04:37:33;;;;;;;14.18;8.60;;;1.10;99.90;;;;;;5095379;28;20012;-61
2021/12/11 04:40:21;;;;;;;15.40;9.15;;;1.10;99.90;;;;;;5095603;28;20016;-61
2021/12/11 04:43:02;;;;;;;16.13;8.90;;;1.20;99.90;;;;;;5094750;28;20389;-61
2021/12/11 04:45:35;;;;;;;14.35;8.45;;;1.10;99.90;;;;;;5077360;28;20116;-60
2021/12/11 04:48:15;;;;;;;12.82;8.15;;;1.20;99.90;;;;;;5095492;28;20039;-60
2021/12/11 04:50:54;;;;;;;13.48;8.13;;;1.20;99.90;;;;;;5095655;28;20104;-61
2021/12/11 04:59:10;;;;;;;12.55;7.30;;;1.30;99.90;;;;;;5095395;28;20476;-61
2021/12/11 05:04:29;;;;;;;14.23;7.72;;;1.40;99.90;;;;;;5095461;28;20020;-61
2021/12/11 05:07:17;;;;;;;13.07;7.18;;;1.40;99.90;;;;;;5094313;28;20032;-61
2021/12/11 05:10:12;;;;;;;20.15;12.35;;;1.40;99.90;;;;;;5095184;28;20020;-61
2021/12/11 05:12:37;;;;;;;24.77;15.02;;;1.40;99.90;;;;;;5076862;28;20024;-61
2021/12/11 05:15:13;;;;;;;24.30;16.10;;;1.30;99.90;;;;;;5076653;28;20043;-61
2021/12/11 05:17:39;;;;;;;24.40;16.30;;;1.40;99.90;;;;;;5094955;28;20028;-61
2021/12/11 05:20:09;;;;;;;25.45;17.13;;;1.30;99.90;;;;;;5094899;28;20099;-61
2021/12/11 05:22:36;;;;;;;29.27;17.13;;;1.30;99.90;;;;;;5094690;28;20031;-61
2021/12/11 05:25:04;;;;;;;29.67;16.80;;;1.30;99.90;;;;;;5094710;28;20043;-61
2021/12/11 05:27:30;;;;;;;28.27;16.02;;;1.30;99.90;;;;;;5076579;28;20028;-61
2021/12/11 05:29:55;;;;;;;25.30;16.08;;;1.30;99.90;;;;;;5094548;28;20024;-61
2021/12/11 05:32:24;;;;;;;26.95;16.40;;;1.30;99.90;;;;;;5094575;28;20094;-61
2021/12/11 05:34:50;;;;;;;28.15;17.58;;;1.40;99.90;;;;;;5094494;28;20107;-61
2021/12/11 05:37:15;;;;;;;28.40;17.23;;;1.40;99.90;;;;;;5094451;28;20111;-61
2021/12/11 05:39:41;;;;;;;29.52;17.85;;;1.40;99.90;;;;;;5094474;28;20024;-61
2021/12/11 05:42:08;;;;;;;28.58;17.90;;;1.50;99.90;;;;;;5094553;28;20440;-61
2021/12/11 05:44:34;;;;;;;31.38;19.17;;;1.50;99.90;;;;;;5094109;28;20109;-61
2021/12/11 05:47:02;;;;;;;32.03;19.30;;;1.50;99.90;;;;;;5094358;28;20020;-61
2021/12/11 05:49:29;;;;;;;33.30;18.92;;;1.50;99.90;;;;;;5094176;28;20481;-61
2021/12/11 05:51:55;;;;;;;37.78;20.23;;;1.60;99.90;;;;;;5094220;28;20055;-61
2021/12/11 05:54:24;;;;;;;33.80;20.13;;;1.60;99.90;;;;;;5094157;28;20074;-61
2021/12/11 05:57:00;;;;;;;33.70;20.13;;;1.60;99.90;;;;;;5094106;28;20020;-61
2021/12/11 05:59:26;;;;;;;38.05;22.35;;;1.60;99.90;;;;;;5094028;28;20028;-61
2021/12/11 06:01:55;;;;;;;40.70;23.10;;;1.50;99.90;;;;;;5094020;28;20032;-61
2021/12/11 06:04:28;;;;;;;35.90;21.80;;;1.50;99.90;;;;;;5093827;28;20028;-61
2021/12/11 06:06:54;;;;;;;40.92;23.92;;;1.50;99.90;;;;;;5093894;28;20480;-61
2021/12/11 06:09:21;;;;;;;46.55;26.13;;;1.50;99.90;;;;;;5075737;28;20433;-61
2021/12/11 06:11:51;;;;;;;48.85;25.75;;;1.50;99.90;;;;;;5093749;28;20031;-61
2021/12/11 06:14:18;;;;;;;51.20;27.95;;;1.50;99.90;;;;;;5093405;28;20105;-61
2021/12/11 06:16:47;;;;;;;52.80;26.92;;;1.50;99.90;;;;;;5093917;28;20044;-61
2021/12/11 06:19:13;;;;;;;49.50;25.30;;;1.60;99.90;;;;;;5092914;28;20391;-61
2021/12/11 06:21:39;;;;;;;51.38;26.80;;;1.60;99.90;;;;;;5093621;28;20387;-61
2021/12/11 06:24:07;;;;;;;52.13;27.33;;;1.60;99.90;;;;;;5093724;28;20099;-61
2021/12/11 06:26:33;;;;;;;54.63;27.77;;;1.60;99.90;;;;;;5093574;28;20020;-61
2021/12/11 06:28:59;;;;;;;54.55;28.50;;;1.60;99.90;;;;;;5093512;28;20559;-61
2021/12/11 06:31:25;;;;;;;53.63;29.23;;;1.60;99.90;;;;;;5093238;28;20060;-61
2021/12/11 06:33:53;;;;;;;50.75;26.67;;;1.70;99.90;;;;;;5093322;28;20059;-61
2021/12/11 06:36:21;;;;;;;50.50;26.88;;;1.70;99.90;;;;;;5093463;28;20016;-61
2021/12/11 06:38:50;;;;;;;52.53;28.40;;;1.70;99.90;;;;;;5093145;28;20020;-61
2021/12/11 06:41:18;;;;;;;55.17;28.55;;;1.70;99.90;;;;;;5075001;28;20413;-61
2021/12/11 06:43:44;;;;;;;49.28;26.30;;;1.70;99.90;;;;;;5092727;28;20093;-61
2021/12/11 06:46:10;;;;;;;54.17;27.80;;;1.80;99.90;;;;;;5092659;28;20483;-61
2021/12/11 06:48:36;;;;;;;59.28;28.92;;;1.80;99.90;;;;;;5093116;28;20466;-61
2021/12/11 06:51:03;;;;;;;57.15;28.48;;;1.80;99.90;;;;;;5092315;28;20036;-61
2021/12/11 06:53:52;;;;;;;50.58;25.35;;;1.80;99.90;;;;;;5092805;28;20479;-61
2021/12/11 06:56:20;;;;;;;37.80;21.17;;;1.90;99.90;;;;;;5074830;28;20114;-61
2021/12/11 06:58:46;;;;;;;41.63;21.88;;;1.90;99.90;;;;;;5093060;28;20016;-61
2021/12/11 07:01:14;;;;;;;42.47;23.13;;;1.90;99.90;;;;;;5092318;28;20073;-61
2021/12/11 07:03:41;;;;;;;41.13;22.30;;;2.00;99.90;;;;;;5070444;28;20511;-61
2021/12/11 07:06:08;;;;;;;42.55;22.83;;;2.00;99.90;;;;;;5086713;28;20012;-61
2021/12/11 07:08:36;;;;;;;49.22;24.90;;;2.10;99.90;;;;;;5067186;28;20036;-61
2021/12/11 07:11:02;;;;;;;49.15;27.33;;;2.10;99.90;;;;;;5088251;28;20105;-62
2021/12/11 07:13:28;;;;;;;48.08;26.02;;;2.10;99.90;;;;;;5068046;28;20044;-61
2021/12/11 07:15:56;;;;;;;46.67;26.80;;;2.10;99.90;;;;;;5087513;28;20031;-61
2021/12/11 07:18:22;;;;;;;47.10;25.67;;;2.10;99.90;;;;;;5085954;28;20380;-61
2021/12/11 07:20:49;;;;;;;47.13;26.05;;;2.10;99.90;;;;;;5065722;28;20290;-61
2021/12/11 07:23:14;;;;;;;52.03;26.50;;;2.10;99.90;;;;;;5087316;28;20036;-62
2021/12/11 07:26:04;;;;;;;51.40;26.63;;;2.00;99.90;;;;;;5090786;28;20042;-62
2021/12/11 07:28:30;;;;;;;51.55;26.92;;;2.00;99.90;;;;;;5091138;28;20027;-61
2021/12/11 07:30:58;;;;;;;45.67;26.05;;;2.00;99.90;;;;;;5089653;28;20028;-61
2021/12/11 07:33:25;;;;;;;49.25;26.73;;;2.00;99.90;;;;;;5076766;28;20020;-62
2021/12/11 07:35:52;;;;;;;46.40;26.40;;;2.00;99.90;;;;;;5090133;28;20103;-62
2021/12/11 07:38:18;;;;;;;51.22;27.27;;;2.00;99.90;;;;;;5094196;28;20027;-61
2021/12/11 07:40:52;;;;;;;49.05;26.80;;;2.00;99.90;;;;;;5092489;28;20028;-61
2021/12/11 07:43:18;;;;;;;50.42;27.30;;;2.10;99.90;;;;;;5096469;28;20430;-61
2021/12/11 07:45:45;;;;;;;49.65;26.63;;;2.10;99.90;;;;;;5077971;28;20100;-62
2021/12/11 07:48:11;;;;;;;51.17;27.88;;;2.10;99.90;;;;;;5096503;28;20028;-61
2021/12/11 07:50:38;;;;;;;49.22;27.13;;;2.20;99.90;;;;;;5096517;28;20028;-62
2021/12/11 07:53:04;;;;;;;51.80;26.83;;;2.20;99.90;;;;;;5095053;28;20020;-61
2021/12/11 07:55:30;;;;;;;46.53;25.20;;;2.20;99.90;;;;;;5077852;28;20208;-61
2021/12/11 07:57:56;;;;;;;47.97;26.58;;;2.20;99.90;;;;;;5095348;28;20491;-61
2021/12/11 08:00:25;;;;;;;45.15;23.05;;;2.20;99.90;;;;;;5094828;28;20012;-62
2021/12/11 08:02:51;;;;;;;35.03;19.25;;;2.30;99.90;;;;;;5092957;28;20065;-61
2021/12/11 08:05:17;;;;;;;32.45;18.45;;;2.30;99.90;;;;;;5093200;28;20024;-62
2021/12/11 08:07:43;;;;;;;32.33;17.85;;;2.40;99.90;;;;;;5094289;28;20020;-62
2021/12/11 08:10:13;;;;;;;35.33;19.60;;;2.40;99.90;;;;;;5094571;28;20031;-61
2021/12/11 08:12:39;;;;;;;;;;;2.50;99.90;;;;;;5094945;28;20028;-61
2021/12/11 08:15:05;;;;;;;26.67;14.88;;;2.60;99.90;;;;;;5092917;28;19969;-61
2021/12/11 08:17:32;;;;;;;28.60;16.27;;;2.50;99.90;;;;;;5092887;28;20127;-61
2021/12/11 08:19:57;;;;;;;29.17;16.08;;;2.60;99.90;;;;;;5094407;28;20012;-62
2021/12/11 08:22:23;;;;;;;26.70;14.38;;;2.70;99.90;;;;;;5094444;28;20039;-62
2021/12/11 08:24:48;;;;;;;31.70;17.60;;;2.70;99.90;;;;;;5094280;28;20498;-62
2021/12/11 08:27:18;;;;;;;27.90;15.40;;;2.70;99.90;;;;;;5094097;28;20023;-62
2021/12/11 08:29:49;;;;;;;25.65;15.52;;;2.80;99.90;;;;;;5094239;28;20031;-61
2021/12/11 08:32:15;;;;;;;24.25;14.30;;;2.80;99.90;;;;;;5093778;28;20471;-62
2021/12/11 08:34:41;;;;;;;25.70;15.13;;;2.80;99.90;;;;;;5094302;28;20503;-62
2021/12/11 08:37:10;;;;;;;26.70;15.00;;;2.90;99.90;;;;;;5090425;28;20134;-62
2021/12/11 08:39:36;;;;;;;28.65;14.95;;;2.90;99.90;;;;;;5086697;28;20415;-62
2021/12/11 08:42:04;;;;;;;28.40;15.77;;;2.90;99.90;;;;;;5090687;28;20020;-61
2021/12/11 08:44:35;;;;;;;31.27;15.77;;;3.00;99.90;;;;;;5065319;28;20535;-62
2021/12/11 08:47:05;;;;;;;32.40;17.15;;;3.00;99.90;;;;;;5075146;28;20036;-62
2021/12/11 08:49:33;;;;;;;27.80;15.82;;;3.00;99.90;;;;;;5091002;28;20035;-62
2021/12/11 08:52:04;;;;;;;29.05;16.88;;;3.00;99.90;;;;;;5090690;28;20418;-62
2021/12/11 08:54:32;;;;;;;29.95;17.40;;;3.00;99.90;;;;;;5077217;28;20016;-61
2021/12/11 08:57:00;;;;;;;25.15;15.98;;;3.10;99.90;;;;;;5094356;28;20032;-62
2021/12/11 08:59:29;;;;;;;24.65;14.18;;;3.10;99.90;;;;;;5058135;28;20024;-62
2021/12/11 09:02:18;;;;;;;23.20;14.50;;;3.10;99.90;;;;;;5094768;28;20051;-62
2021/12/11 09:04:57;;;;;;;24.70;14.18;;;3.20;99.90;;;;;;5095009;28;20063;-61
2021/12/11 09:07:30;;;;;;;23.13;13.27;;;3.20;99.90;;;;;;5076965;28;20365;-62
2021/12/11 09:10:17;;;;;;;24.40;14.13;;;3.20;99.90;;;;;;5095059;28;20251;-62
2021/12/11 09:12:55;;;;;;;22.27;13.43;;;3.30;99.90;;;;;;5094914;28;20020;-61
2021/12/11 09:15:29;;;;;;;22.40;12.57;;;3.30;99.90;;;;;;5077727;28;20127;-61
2021/12/11 09:18:13;;;;;;;23.92;14.52;;;3.30;99.90;;;;;;5094896;28;20078;-61
2021/12/11 09:20:53;;;;;;;23.42;13.48;;;3.40;99.90;;;;;;5094829;28;20020;-61
2021/12/11 09:23:31;;;;;;;24.85;13.52;;;3.40;99.90;;;;;;5094694;28;20032;-61
2021/12/11 09:26:12;;;;;;;23.30;13.70;;;3.40;99.90;;;;;;5094875;28;20020;-62
2021/12/11 09:28:47;;;;;;;22.38;12.70;;;3.50;99.90;;;;;;5094832;28;20476;-61
2021/12/11 09:31:28;;;;;;;23.52;12.98;;;3.50;99.90;;;;;;5094833;28;20036;-62
2021/12/11 09:34:08;;;;;;;21.40;13.20;;;3.60;99.90;;;;;;5083214;28;20080;-62
2021/12/11 09:36:54;;;;;;;21.67;12.35;;;3.60;99.90;;;;;;5109202;28;20016;-63
2021/12/11 09:39:45;;;;;;;20.15;12.40;;;3.70;99.90;;;;;;5093107;28;20059;-59
2021/12/11 09:42:11;;;;;;;21.45;13.15;;;3.70;99.90;;;;;;5085797;28;20032;-59
2021/12/11 09:44:50;;;;;;;24.58;13.65;;;3.70;99.90;;;;;;5089779;28;20031;-59
2021/12/11 09:47:22;;;;;;;28.35;16.20;;;3.80;99.90;;;;;;5082106;28;20056;-59
2021/12/11 09:49:56;;;;;;;30.55;18.17;;;3.80;99.90;;;;;;5083244;28;20329;-59
2021/12/11 09:52:25;;;;;;;30.40;17.60;;;3.80;99.90;;;;;;5081865;28;20101;-59
2021/12/11 09:55:17;;;;;;;26.77;16.27;;;3.90;99.90;;;;;;5085853;28;20633;-59
2021/12/11 09:57:49;;;;;;;28.10;16.77;;;4.00;99.90;;;;;;5085867;28;20142;-59
2021/12/11 10:00:24;;;;;;;28.15;16.42;;;4.00;99.90;;;;;;5085633;28;20020;-59
2021/12/11 10:02:50;;;;;;;31.38;18.95;;;4.10;99.90;;;;;;5068289;28;20032;-59
2021/12/11 10:06:07;;;;;;;27.85;17.75;;;4.20;99.90;;;;;;5070843;28;20048;-60
2021/12/11 10:11:57;;;;;;;24.60;15.23;;;4.80;99.90;;;;;;5038429;28;20032;-59
2021/12/11 10:14:28;;;;;;;26.60;16.83;;;5.00;99.90;;;;;;5061537;28;20036;-60
2021/12/11 10:17:34;;;;;;;;;;;;;;;;;;;;;
2021/12/11 10:20:39;;;;;;;26.92;16.38;;;5.10;99.90;;;;;;5080367;28;20036;-60
2021/12/11 10:23:08;;;;;;;26.88;16.65;;;5.10;99.90;;;;;;5059133;28;20033;-59
2021/12/11 10:25:37;;;;;;;25.17;16.95;;;5.10;99.90;;;;;;5080383;28;20506;-60
2021/12/11 10:28:07;;;;;;;26.15;16.85;;;5.20;99.90;;;;;;5082988;28;20042;-59
2021/12/11 10:31:42;;;;;;;27.27;16.40;;;5.20;99.90;;;;;;5081412;28;20479;-60
2021/12/11 10:34:12;;;;;;;31.65;20.38;;;5.30;99.90;;;;;;5081217;28;20032;-60
2021/12/11 10:36:41;;;;;;;;;;;5.20;99.90;;;;;;5081927;28;20005;-59
2021/12/11 10:39:09;;;;;;;35.92;18.58;;;5.10;99.90;;;;;;5082577;28;19919;-60
2021/12/11 10:41:36;;;;;;;28.02;17.73;;;5.00;99.90;;;;;;5085996;28;20018;-59
2021/12/11 10:44:13;;;;;;;30.30;19.42;;;5.00;99.90;;;;;;5088855;28;20024;-60
2021/12/11 10:46:48;;;;;;;30.35;18.00;;;5.00;99.90;;;;;;5091458;28;20476;-59
2021/12/11 10:49:16;;;;;;;32.42;19.40;;;5.00;99.90;;;;;;5059415;28;20050;-60
2021/12/11 10:52:04;;;;;;;;;;;;;;;;;;;;;
2021/12/11 10:54:30;;;;;;;33.03;20.10;;;5.10;99.90;;;;;;5089850;28;20579;-60
2021/12/11 10:56:57;;;;;;;33.70;20.63;;;5.10;99.90;;;;;;5088873;28;20099;-59
2021/12/11 10:59:26;;;;;;;30.50;19.00;;;5.10;99.90;;;;;;5088617;28;20027;-59
2021/12/11 11:02:18;;;;;;;34.22;20.52;;;5.20;99.90;;;;;;5091103;28;20023;-60
2021/12/11 11:04:52;;;;;;;31.52;19.40;;;5.20;99.90;;;;;;5088177;28;20066;-60
2021/12/11 11:07:18;;;;;;;34.53;20.45;;;5.20;99.90;;;;;;5086714;28;20020;-59
2021/12/11 11:09:44;;;;;;;29.80;19.13;;;5.20;99.90;;;;;;5088812;28;20069;-59
2021/12/11 11:12:58;;;;;;;31.83;18.83;;;5.20;99.90;;;;;;5087332;28;20032;-60
2021/12/11 11:16:01;;;;;;;33.70;18.95;;;5.30;99.90;;;;;;5054715;28;20040;-60
2021/12/11 11:22:01;;;;;;;35.63;20.05;;;5.30;99.90;;;;;;5041940;28;20032;-60
2021/12/11 11:24:34;;;;;;;33.42;19.75;;;5.20;99.90;;;;;;5079177;28;20020;-60
2021/12/11 11:27:03;;;;;;;31.27;18.33;;;5.30;99.90;;;;;;5091217;28;20018;-60
2021/12/11 11:29:30;;;;;;;36.75;21.13;;;5.30;99.90;;;;;;5091154;28;20047;-60
2021/12/11 11:32:00;;;;;;;32.70;20.60;;;5.20;99.90;;;;;;5090817;28;20052;-59
2021/12/11 11:34:28;;;;;;;30.45;18.33;;;5.30;99.90;;;;;;5088820;28;20012;-59
2021/12/11 11:36:56;;;;;;;28.75;18.38;;;5.30;99.90;;;;;;5090463;28;20055;-60
2021/12/11 11:39:24;;;;;;;29.98;17.35;;;5.30;99.90;;;;;;5091194;28;20349;-59
2021/12/11 11:41:55;;;;;;;30.70;17.13;;;5.30;99.90;;;;;;5090812;28;20444;-60
2021/12/11 11:44:24;;;;;;;27.42;16.05;;;5.30;99.90;;;;;;5091809;28;20100;-59
2021/12/11 11:46:51;;;;;;;29.58;16.58;;;5.30;99.90;;;;;;5083840;28;20032;-60
2021/12/11 11:49:18;;;;;;;26.55;17.50;;;5.40;99.90;;;;;;5105820;28;20152;-59
2021/12/11 11:52:08;;;;;;;25.08;15.75;;;5.40;99.90;;;;;;5095306;28;20024;-59
2021/12/11 11:54:35;;;;;;;;;;;5.40;99.90;;;;;;5105168;28;20383;-59
2021/12/11 11:57:24;;;;;;;28.92;18.10;;;5.40;99.90;;;;;;5088861;28;20389;-59
2021/12/11 11:59:51;;;;;;;31.73;18.17;;;5.50;99.90;;;;;;5090577;28;20025;-59
2021/12/11 12:05:42;;;;;;;32.67;18.35;;;5.60;99.90;;;;;;5091371;28;20031;-59
2021/12/11 12:08:10;;;;;;;36.70;21.17;;;5.60;99.90;;;;;;5090379;28;20027;-59
2021/12/11 12:10:37;;;;;;;37.75;21.30;;;5.60;99.90;;;;;;5097713;28;20514;-60
2021/12/11 12:13:07;;;;;;;40.70;22.10;;;5.60;99.90;;;;;;5100165;28;20051;-60
2021/12/11 12:15:38;;;;;;;;;;;5.70;99.90;;;;;;5090260;28;20032;-59
2021/12/11 12:18:09;;;;;;;35.30;20.90;;;5.70;99.90;;;;;;5094247;28;19904;-59
2021/12/11 12:20:35;;;;;;;32.03;18.30;;;5.70;99.90;;;;;;5094723;28;20069;-59
2021/12/11 12:23:03;;;;;;;26.73;16.52;;;5.80;99.90;;;;;;5091488;28;20028;-59
2021/12/11 12:25:30;;;;;;;25.13;16.02;;;5.90;99.90;;;;;;5094296;28;20024;-59
2021/12/11 12:27:56;;;;;;;28.95;16.08;;;6.00;99.90;;;;;;5095273;28;20435;-59
2021/12/11 12:30:32;;;;;;;24.10;14.60;;;6.00;99.90;;;;;;5094206;28;20042;-60
2021/12/11 12:32:59;;;;;;;27.90;16.70;;;6.00;99.90;;;;;;5094554;28;20059;-59
2021/12/11 12:35:26;;;;;;;24.90;14.70;;;6.00;99.90;;;;;;5094447;28;20050;-59
2021/12/11 12:37:54;;;;;;;24.67;15.63;;;5.90;99.90;;;;;;5073934;28;20016;-60
2021/12/11 12:40:33;;;;;;;25.13;15.93;;;5.90;99.90;;;;;;5092675;28;20024;-59
2021/12/11 12:43:13;;;;;;;23.90;15.88;;;5.90;99.90;;;;;;5094770;28;20545;-59
2021/12/11 12:45:50;;;;;;;22.93;14.80;;;6.00;99.90;;;;;;5094182;28;20020;-59
2021/12/11 12:48:20;;;;;;;23.45;14.80;;;6.00;99.90;;;;;;5092098;28;20526;-60
2021/12/11 12:50:48;;;;;;;21.75;14.90;;;6.10;99.90;;;;;;5094066;28;20519;-60
2021/12/11 12:53:15;;;;;;;18.65;11.52;;;6.20;99.90;;;;;;5093780;28;20119;-60
2021/12/11 12:55:45;;;;;;;18.80;12.10;;;6.30;99.90;;;;;;5094043;28;20028;-60
2021/12/11 12:58:16;;;;;;;20.00;13.32;;;6.40;99.90;;;;;;5095338;28;20023;-60
2021/12/11 13:00:51;;;;;;;22.25;13.70;;;6.40;99.90;;;;;;5103725;28;20051;-60
2021/12/11 13:03:27;;;;;;;24.08;13.82;;;6.50;99.90;;;;;;5101465;28;20028;-60
2021/12/11 13:06:00;;;;;;;17.60;11.32;;;6.40;99.90;;;;;;5111245;28;20036;-60
2021/12/11 13:08:31;;;;;;;18.25;12.02;;;6.40;99.90;;;;;;5100539;28;20076;-60
2021/12/11 13:11:02;;;;;;;21.50;12.45;;;6.40;99.90;;;;;;5085843;28;20077;-59
2021/12/11 13:13:28;;;;;;;22.88;12.80;;;6.40;99.90;;;;;;5109250;28;20024;-60
2021/12/11 13:15:58;;;;;;;20.23;12.65;;;6.40;99.90;;;;;;5097693;28;20024;-60
2021/12/11 13:18:29;;;;;;;20.63;13.73;;;6.40;99.90;;;;;;5108825;28;20110;-59
2021/12/11 13:21:18;;;;;;;24.45;14.85;;;6.40;99.90;;;;;;5104942;28;20038;-60
2021/12/11 13:23:46;;;;;;;27.05;15.52;;;6.50;99.90;;;;;;5097676;28;20031;-60
2021/12/11 13:26:14;;;;;;;24.05;14.70;;;6.50;99.90;;;;;;5110233;28;20103;-59
2021/12/11 13:28:43;;;;;;;26.50;13.90;;;6.50;99.90;;;;;;5102296;28;20035;-60
2021/12/11 13:31:13;;;;;;;25.20;13.55;;;6.50;99.90;;;;;;5102064;28;20138;-60
2021/12/11 13:33:40;;;;;;;25.40;14.75;;;6.50;99.90;;;;;;5110620;28;20039;-60